createdAt,value
2022-08-18T00:02:01.793Z,67.00
2022-08-18T00:05:06.685Z,66.20
2022-08-18T00:08:10.324Z,66.10
2022-08-18T00:11:13.889Z,66.20
2022-08-18T00:14:22.421Z,66.20
2022-08-18T00:17:27.630Z,67.30
2022-08-18T00:20:30.875Z,66.10
2022-08-18T00:23:34.072Z,66.10
2022-08-18T00:26:37.378Z,67.60
2022-08-18T00:32:49.583Z,65.80
2022-08-18T00:35:53.004Z,66.20
2022-08-18T00:38:56.136Z,66.80
2022-08-18T00:41:59.344Z,66.40
2022-08-18T00:45:07.498Z,66.00
2022-08-18T00:48:14.752Z,66.70
2022-08-18T00:51:25.941Z,66.60
2022-08-18T00:54:34.061Z,66.60
2022-08-18T00:57:37.876Z,65.40
2022-08-18T01:00:41.485Z,66.70
2022-08-18T01:03:53.687Z,68.30
2022-08-18T01:07:03.061Z,66.90
2022-08-18T01:10:10.182Z,66.90
2022-08-18T01:13:13.700Z,66.90
2022-08-18T01:16:34.801Z,67.60
2022-08-18T01:19:57.612Z,67.00
2022-08-18T01:23:12.955Z,67.60
2022-08-18T01:26:19.067Z,66.10
2022-08-18T01:29:22.528Z,65.20
2022-08-18T01:32:26.483Z,68.20
2022-08-18T01:35:30.870Z,67.60
2022-08-18T01:38:50.316Z,67.90
2022-08-18T01:41:53.649Z,68.10
2022-08-18T01:44:57.116Z,67.60
2022-08-18T01:48:00.694Z,67.80
2022-08-18T01:51:07.541Z,67.30
2022-08-18T01:54:16.181Z,67.70
2022-08-18T01:57:21.855Z,67.80
2022-08-18T02:00:26.310Z,67.50
2022-08-18T02:03:36.269Z,67.70
2022-08-18T02:06:46.464Z,67.30
2022-08-18T02:09:52.614Z,67.20
2022-08-18T02:12:56.888Z,67.20
2022-08-18T02:16:00.148Z,67.30
2022-08-18T02:19:03.708Z,67.20
2022-08-18T02:22:09.838Z,67.30
2022-08-18T02:25:16.312Z,67.50
2022-08-18T02:28:19.634Z,67.40
2022-08-18T02:31:26.351Z,67.60
2022-08-18T02:34:29.758Z,67.30
2022-08-18T02:37:33.528Z,67.20
2022-08-18T02:40:39.317Z,68.20
2022-08-18T02:43:43.918Z,67.20
2022-08-18T02:46:47.309Z,67.40
2022-08-18T02:49:51.073Z,67.40
2022-08-18T02:52:54.809Z,67.20
2022-08-18T02:56:40.704Z,67.20
2022-08-18T02:59:47.470Z,67.50
2022-08-18T03:02:53.435Z,67.20
2022-08-18T03:05:56.577Z,67.70
2022-08-18T03:08:59.924Z,68.30
2022-08-18T03:12:07.233Z,68.20
2022-08-18T03:15:12.380Z,68.10
2022-08-18T03:18:17.002Z,68.20
2022-08-18T03:21:25.589Z,67.90
2022-08-18T03:24:30.432Z,68.90
2022-08-18T03:27:34.968Z,68.50
2022-08-18T03:30:38.207Z,68.90
2022-08-18T03:33:42.452Z,69.80
2022-08-18T03:39:51.621Z,68.80
2022-08-18T03:42:56.724Z,69.90
2022-08-18T03:46:03.371Z,70.50
2022-08-18T03:49:06.720Z,69.60
2022-08-18T03:52:11.242Z,69.40
2022-08-18T03:55:14.417Z,69.50
2022-08-18T03:58:19.009Z,69.70
2022-08-18T04:01:27.141Z,70.00
2022-08-18T04:04:30.697Z,69.90
2022-08-18T04:07:34.536Z,71.40
2022-08-18T04:10:38.092Z,70.80
2022-08-18T04:13:43.430Z,72.10
2022-08-18T04:16:49.070Z,71.40
2022-08-18T04:19:53.142Z,71.40
2022-08-18T04:22:56.777Z,71.60
2022-08-18T04:26:01.819Z,72.10
2022-08-18T04:29:09.132Z,72.00
2022-08-18T04:32:12.379Z,71.90
2022-08-18T04:35:15.731Z,71.30
2022-08-18T04:38:19.027Z,71.80
2022-08-18T04:41:26.904Z,72.30
2022-08-18T04:44:31.780Z,71.30
2022-08-18T04:47:36.190Z,72.10
2022-08-18T04:50:40.753Z,72.60
2022-08-18T04:53:47.560Z,72.30
2022-08-18T04:56:50.861Z,73.00
2022-08-18T04:59:57.674Z,73.50
2022-08-18T05:03:00.902Z,72.20
2022-08-18T05:06:07.227Z,72.90
2022-08-18T05:09:13.104Z,72.80
2022-08-18T05:12:20.402Z,71.50
2022-08-18T05:15:42.160Z,72.80
2022-08-18T05:18:54.722Z,73.00
2022-08-18T05:22:03.070Z,72.80
2022-08-18T05:25:09.038Z,73.10
2022-08-18T05:28:13.437Z,71.80
2022-08-18T05:31:22.918Z,72.70
2022-08-18T05:34:26.155Z,72.90
2022-08-18T05:37:40.643Z,73.70
2022-08-18T05:40:47.701Z,73.40
2022-08-18T05:43:52.660Z,73.10
2022-08-18T05:47:04.723Z,73.10
2022-08-18T05:50:11.887Z,73.30
2022-08-18T05:53:20.554Z,73.20
2022-08-18T05:56:47.519Z,73.00
2022-08-18T05:59:54.996Z,73.40
2022-08-18T06:03:08.599Z,73.70
2022-08-18T06:06:19.483Z,73.90
2022-08-18T06:09:31.457Z,74.10
2022-08-18T06:12:40.165Z,74.00
2022-08-18T06:15:55.612Z,74.00
2022-08-18T06:19:10.470Z,74.30
2022-08-18T06:22:30.550Z,74.50
2022-08-18T06:25:51.695Z,74.50
2022-08-18T06:29:11.932Z,74.40
2022-08-18T06:32:29.229Z,74.30
2022-08-18T06:35:42.375Z,74.30
2022-08-18T06:39:01.897Z,73.20
2022-08-18T06:42:05.927Z,74.40
2022-08-18T06:45:13.959Z,73.80
2022-08-18T06:48:33.658Z,74.10
2022-08-18T06:51:40.782Z,73.80
2022-08-18T06:54:50.425Z,74.00
2022-08-18T06:57:59.036Z,73.00
2022-08-18T07:01:08.709Z,73.90
2022-08-18T07:04:30.618Z,74.00
2022-08-18T07:07:40.896Z,73.90
2022-08-18T07:10:47.603Z,75.40
2022-08-18T07:14:09.357Z,75.40
2022-08-18T07:17:42.519Z,75.30
2022-08-18T07:20:53.732Z,74.40
2022-08-18T07:24:24.355Z,73.60
2022-08-18T07:27:51.481Z,72.40
2022-08-18T07:31:17.411Z,70.70
2022-08-18T07:34:26.541Z,71.60
2022-08-18T07:37:44.184Z,69.90
2022-08-18T07:40:56.122Z,68.40
2022-08-18T07:44:16.357Z,67.50
2022-08-18T07:47:27.999Z,66.40
2022-08-18T07:50:58.506Z,66.40
2022-08-18T07:54:37.681Z,66.30
2022-08-18T07:57:48.760Z,66.40
2022-08-18T08:01:04.398Z,66.50
2022-08-18T08:04:25.852Z,67.30
2022-08-18T08:07:35.692Z,66.30
2022-08-18T08:10:51.611Z,65.60
2022-08-18T08:14:14.003Z,69.80
2022-08-18T08:17:32.701Z,64.40
2022-08-18T08:20:47.392Z,64.20
2022-08-18T08:24:15.098Z,63.20
2022-08-18T08:27:31.336Z,63.00
2022-08-18T08:30:47.535Z,62.10
2022-08-18T08:34:04.057Z,62.30
2022-08-18T08:37:15.877Z,61.60
2022-08-18T08:40:26.403Z,61.90
2022-08-18T08:43:35.919Z,60.60
2022-08-18T08:46:49.727Z,60.40
2022-08-18T08:50:00.785Z,59.30
2022-08-18T08:53:13.694Z,60.00
2022-08-18T08:56:21.118Z,59.80
2022-08-18T08:59:25.686Z,60.00
2022-08-18T09:03:05.259Z,59.60
2022-08-18T09:06:27.706Z,61.30
2022-08-18T09:10:05.389Z,59.90
2022-08-18T09:13:41.517Z,57.70
2022-08-18T09:17:11.327Z,59.50
2022-08-18T09:20:49.667Z,58.70
2022-08-18T09:24:10.774Z,58.30
2022-08-18T09:27:39.866Z,58.60
2022-08-18T09:31:19.984Z,58.10
2022-08-18T09:34:45.351Z,58.70
2022-08-18T09:38:11.425Z,58.10
2022-08-18T09:41:35.119Z,57.30
2022-08-18T09:45:08.935Z,56.80
2022-08-18T09:48:31.886Z,57.00
2022-08-18T09:51:40.246Z,56.30
2022-08-18T09:54:59.871Z,56.70
2022-08-18T09:58:20.438Z,56.40
2022-08-18T10:01:42.015Z,55.20
2022-08-18T10:04:50.511Z,56.10
2022-08-18T10:08:21.263Z,56.40
2022-08-18T10:11:56.695Z,55.80
2022-08-18T10:15:33.033Z,55.50
2022-08-18T10:18:55.773Z,55.20
2022-08-18T10:22:09.560Z,55.10
2022-08-18T10:25:22.639Z,54.80
2022-08-18T10:28:57.697Z,55.10
2022-08-18T10:32:53.998Z,55.80
2022-08-18T10:36:03.156Z,54.80
2022-08-18T10:39:08.679Z,54.80
2022-08-18T10:42:20.919Z,54.70
2022-08-18T10:45:31.592Z,54.30
2022-08-18T10:48:35.708Z,53.90
2022-08-18T10:52:04.030Z,53.60
2022-08-18T10:55:47.945Z,53.90
2022-08-18T10:59:16.489Z,53.60
2022-08-18T11:03:29.906Z,54.00
2022-08-18T11:06:26.650Z,53.90
2022-08-18T11:09:32.286Z,53.60
2022-08-18T11:13:08.907Z,54.10
2022-08-18T11:16:33.261Z,54.40
2022-08-18T11:19:42.471Z,54.50
2022-08-18T11:22:55.674Z,54.50
2022-08-18T11:26:18.435Z,55.00
2022-08-18T11:29:32.935Z,55.20
2022-08-18T11:32:39.535Z,55.30
2022-08-18T11:35:52.847Z,55.00
2022-08-18T11:38:57.432Z,55.80
2022-08-18T11:42:00.841Z,55.70
2022-08-18T11:45:13.346Z,55.80
2022-08-18T11:48:23.626Z,55.50
2022-08-18T11:51:34.451Z,55.60
2022-08-18T11:54:50.741Z,55.90
2022-08-18T11:58:00.388Z,55.80
2022-08-18T12:01:04.069Z,56.50
2022-08-18T12:04:21.923Z,56.10
2022-08-18T12:07:35.201Z,55.90
2022-08-18T12:10:38.703Z,56.00
2022-08-18T12:13:45.327Z,57.80
2022-08-18T12:16:50.252Z,56.70
2022-08-18T12:19:54.380Z,57.80
2022-08-18T12:22:59.012Z,56.10
2022-08-18T12:26:02.490Z,58.00
2022-08-18T12:29:08.870Z,58.50
2022-08-18T12:32:18.044Z,58.60
2022-08-18T12:35:38.142Z,58.90
2022-08-18T12:38:45.661Z,59.20
2022-08-18T12:41:56.073Z,59.40
2022-08-18T12:45:02.820Z,59.70
2022-08-18T12:48:06.632Z,60.00
2022-08-18T12:51:10.907Z,60.10
2022-08-18T12:54:17.611Z,58.90
2022-08-18T13:00:51.372Z,60.50
2022-08-18T13:04:13.347Z,60.00
2022-08-18T13:07:19.087Z,60.50
2022-08-18T13:10:42.807Z,60.90
2022-08-18T13:13:47.594Z,61.00
2022-08-18T13:16:57.746Z,62.00
2022-08-18T13:20:01.082Z,61.40
2022-08-18T13:23:04.668Z,61.30
2022-08-18T13:26:23.035Z,61.50
2022-08-18T13:29:26.799Z,61.90
2022-08-18T13:32:37.272Z,61.80
2022-08-18T13:35:52.430Z,61.70
2022-08-18T13:38:57.687Z,63.20
2022-08-18T13:42:26.171Z,62.10
2022-08-18T13:45:26.343Z,62.20
2022-08-18T13:48:29.847Z,62.50
2022-08-18T13:51:33.144Z,62.70
2022-08-18T13:54:36.424Z,62.80
2022-08-18T13:57:49.650Z,62.60
2022-08-18T14:01:15.842Z,62.90
2022-08-18T14:04:27.796Z,63.30
2022-08-18T14:07:31.928Z,63.40
2022-08-18T14:10:38.531Z,63.50
2022-08-18T14:13:44.441Z,63.00
2022-08-18T14:16:48.783Z,62.80
2022-08-18T14:20:15.274Z,63.70
2022-08-18T14:23:43.753Z,63.70
2022-08-18T14:26:56.792Z,63.80
2022-08-18T14:30:01.942Z,64.00
2022-08-18T14:33:11.376Z,63.80
2022-08-18T14:36:16.176Z,64.30
2022-08-18T14:39:21.433Z,64.40
2022-08-18T14:42:24.727Z,64.40
2022-08-18T14:45:48.617Z,64.70
2022-08-18T14:48:52.323Z,65.00
2022-08-18T14:51:56.062Z,65.10
2022-08-18T14:55:00.047Z,64.70
2022-08-18T14:58:03.287Z,65.40
2022-08-18T15:01:11.771Z,65.60
2022-08-18T15:04:19.164Z,65.90
2022-08-18T15:07:23.848Z,67.70
2022-08-18T15:10:28.040Z,66.10
2022-08-18T15:13:32.132Z,67.60
2022-08-18T15:16:38.660Z,66.50
2022-08-18T15:19:59.902Z,66.20
2022-08-18T15:23:27.979Z,66.20
2022-08-18T15:26:32.481Z,66.50
2022-08-18T15:29:41.572Z,66.80
2022-08-18T15:32:51.310Z,66.40
2022-08-18T15:35:55.714Z,66.80
2022-08-18T15:38:59.647Z,67.20
2022-08-18T15:42:11.896Z,66.90
2022-08-18T15:45:16.973Z,67.20
2022-08-18T15:48:24.844Z,66.80
2022-08-18T15:51:31.515Z,67.10
2022-08-18T15:54:44.581Z,67.60
2022-08-18T15:57:57.912Z,67.40
2022-08-18T16:01:01.437Z,69.00
2022-08-18T16:04:25.586Z,68.50
2022-08-18T16:07:40.957Z,68.00
2022-08-18T16:10:48.809Z,68.20
2022-08-18T16:13:52.458Z,68.20
2022-08-18T16:16:58.603Z,68.30
2022-08-18T16:20:03.524Z,65.60
2022-08-18T16:23:08.018Z,68.10
2022-08-18T16:29:22.646Z,71.00
2022-08-18T16:32:26.219Z,69.30
2022-08-18T16:35:31.402Z,67.30
2022-08-18T16:38:34.710Z,69.50
2022-08-18T16:41:38.523Z,68.70
2022-08-18T16:44:42.178Z,69.90
2022-08-18T16:47:45.424Z,69.20
2022-08-18T16:50:51.302Z,69.60
2022-08-18T16:53:54.929Z,69.50
2022-08-18T16:56:58.158Z,70.10
2022-08-18T17:00:19.436Z,69.40
2022-08-18T17:03:54.513Z,70.10
2022-08-18T17:06:59.030Z,70.10
2022-08-18T17:10:03.590Z,70.50
2022-08-18T17:13:07.038Z,71.90
2022-08-18T17:16:12.287Z,71.00
2022-08-18T17:19:15.546Z,71.40
2022-08-18T17:22:20.438Z,73.80
2022-08-18T17:25:27.494Z,71.00
2022-08-18T17:28:47.984Z,71.70
2022-08-18T17:32:00.482Z,72.30
2022-08-18T17:35:13.544Z,72.20
2022-08-18T17:38:28.020Z,71.70
2022-08-18T17:41:31.418Z,73.20
2022-08-18T17:44:46.304Z,72.10
2022-08-18T17:48:01.267Z,72.60
2022-08-18T17:51:31.671Z,72.40
2022-08-18T17:54:45.829Z,73.20
2022-08-18T17:57:58.598Z,73.30
2022-08-18T18:01:02.429Z,72.20
2022-08-18T18:04:06.321Z,72.60
2022-08-18T18:07:21.916Z,72.80
2022-08-18T18:10:40.200Z,72.40
2022-08-18T18:17:07.013Z,72.70
2022-08-18T18:20:26.114Z,73.10
2022-08-18T18:23:34.555Z,73.30
2022-08-18T18:26:42.842Z,72.50
2022-08-18T18:29:58.082Z,72.80
2022-08-18T18:33:08.105Z,73.80
2022-08-18T18:36:11.702Z,75.70
2022-08-18T18:39:20.469Z,75.20
2022-08-18T18:42:29.771Z,73.90
2022-08-18T18:45:33.002Z,74.90
2022-08-18T18:48:51.819Z,74.60
2022-08-18T18:52:08.398Z,75.20
2022-08-18T18:55:19.512Z,74.60
2022-08-18T18:58:38.666Z,75.20
2022-08-18T19:02:00.842Z,75.40
2022-08-18T19:05:23.401Z,74.90
2022-08-18T19:08:39.671Z,74.40
2022-08-18T19:12:04.662Z,75.10
2022-08-18T19:15:15.891Z,75.70
2022-08-18T19:18:28.272Z,75.30
2022-08-18T19:22:04.854Z,75.40
2022-08-18T19:25:08.110Z,75.40
2022-08-18T19:28:19.409Z,75.50
2022-08-18T19:31:36.200Z,75.40
2022-08-18T19:34:51.136Z,75.50
2022-08-18T19:38:10.204Z,76.10
2022-08-18T19:41:28.979Z,75.80
2022-08-18T19:44:51.116Z,75.90
2022-08-18T19:48:19.917Z,76.90
2022-08-18T19:51:32.678Z,75.80
2022-08-18T19:55:01.598Z,75.80
2022-08-18T19:58:34.273Z,75.90
2022-08-18T20:01:55.449Z,76.10
2022-08-18T20:05:21.564Z,76.40
2022-08-18T20:08:59.176Z,76.30
2022-08-18T20:12:25.382Z,76.40
2022-08-18T20:15:31.073Z,77.10
2022-08-18T20:18:38.175Z,77.30
2022-08-18T20:22:01.067Z,77.10
2022-08-18T20:25:35.838Z,76.80
2022-08-18T20:28:40.851Z,77.80
2022-08-18T20:32:02.881Z,76.60
2022-08-18T20:35:20.543Z,77.20
2022-08-18T20:38:35.525Z,77.00
2022-08-18T20:41:47.150Z,76.90
2022-08-18T20:44:59.569Z,76.90
2022-08-18T20:48:19.698Z,77.00
2022-08-18T20:51:27.134Z,76.90
2022-08-18T20:54:57.547Z,76.90
2022-08-18T20:58:09.965Z,77.00
2022-08-18T21:01:14.647Z,77.70
2022-08-18T21:07:36.487Z,77.30
2022-08-18T21:10:49.809Z,77.30
2022-08-18T21:13:56.494Z,78.40
2022-08-18T21:20:07.694Z,77.30
2022-08-18T21:23:14.960Z,77.30
2022-08-18T21:26:21.005Z,78.00
2022-08-18T21:32:35.674Z,77.60
2022-08-18T21:39:05.120Z,75.90
2022-08-18T21:42:20.484Z,77.50
2022-08-18T21:45:24.308Z,77.60
2022-08-18T21:48:29.780Z,77.60
2022-08-18T21:51:45.216Z,77.50
2022-08-18T21:58:07.341Z,77.40
2022-08-18T22:01:22.807Z,77.40
2022-08-18T22:04:32.056Z,77.30
2022-08-18T22:11:00.963Z,77.30
2022-08-18T22:14:27.819Z,77.10
2022-08-18T22:17:34.900Z,77.50
2022-08-18T22:20:49.403Z,77.90
2022-08-18T22:24:11.191Z,78.30
2022-08-18T22:27:22.313Z,78.10
2022-08-18T22:30:26.851Z,78.40
2022-08-18T22:36:39.379Z,78.50
2022-08-18T22:39:47.890Z,78.60
2022-08-18T22:45:56.245Z,78.50
2022-08-18T22:55:13.622Z,78.40
2022-08-18T23:01:34.042Z,78.80
2022-08-18T23:04:37.356Z,79.00
2022-08-18T23:07:40.719Z,78.40
2022-08-18T23:16:54.112Z,78.40
2022-08-18T23:29:11.698Z,78.40
2022-08-18T23:32:16.959Z,78.60
2022-08-18T23:41:38.166Z,79.00
2022-08-18T23:47:46.823Z,79.30
2022-08-18T23:53:56.855Z,79.50
